createdAt,value
2023-04-19T00:00:19.520Z,37.99
2023-04-19T00:02:49.487Z,37.71
2023-04-19T00:05:18.893Z,37.52
2023-04-19T00:07:47.250Z,37.94
2023-04-19T00:10:15.212Z,37.88
2023-04-19T00:12:43.196Z,37.62
2023-04-19T00:15:15.759Z,38.31
2023-04-19T00:17:45.531Z,38.01
2023-04-19T00:20:14.160Z,38.13
2023-04-19T00:22:42.149Z,37.71
2023-04-19T00:25:10.372Z,38.28
2023-04-19T00:27:38.289Z,37.88
2023-04-19T00:30:07.736Z,37.71
2023-04-19T00:32:36.433Z,37.69
2023-04-19T00:35:08.338Z,38.59
2023-04-19T00:37:36.285Z,38.34
2023-04-19T00:40:06.536Z,38.09
2023-04-19T00:42:35.711Z,38.03
2023-04-19T00:45:03.746Z,38.54
2023-04-19T00:47:31.916Z,38.48
2023-04-19T00:50:00.428Z,38.48
2023-04-19T00:52:30.298Z,38.17
2023-04-19T00:54:59.641Z,38.71
2023-04-19T00:57:28.198Z,38.69
2023-04-19T00:59:58.060Z,38.80
2023-04-19T01:02:26.198Z,38.83
2023-04-19T01:04:54.242Z,38.70
2023-04-19T01:07:22.253Z,38.72
2023-04-19T01:09:52.553Z,38.98
2023-04-19T01:12:23.228Z,38.49
2023-04-19T01:14:51.746Z,38.94
2023-04-19T01:17:20.095Z,38.88
2023-04-19T01:19:48.130Z,39.09
2023-04-19T01:22:21.466Z,39.47
2023-04-19T01:24:49.678Z,39.16
2023-04-19T01:27:17.698Z,38.89
2023-04-19T01:29:45.751Z,38.78
2023-04-19T01:32:13.926Z,38.92
2023-04-19T01:34:42.984Z,38.88
2023-04-19T01:37:10.930Z,39.05
2023-04-19T01:39:40.402Z,39.32
2023-04-19T01:42:08.532Z,39.02
2023-04-19T01:44:37.913Z,39.42
2023-04-19T01:47:06.438Z,39.10
2023-04-19T01:49:34.477Z,39.15
2023-04-19T01:52:02.334Z,39.12
2023-04-19T01:54:30.311Z,39.39
2023-04-19T01:57:01.483Z,39.90
2023-04-19T01:59:30.014Z,39.61
2023-04-19T02:01:58.141Z,39.72
2023-04-19T02:04:26.420Z,39.94
2023-04-19T02:06:54.522Z,39.51
2023-04-19T02:09:22.555Z,39.62
2023-04-19T02:11:50.400Z,39.61
2023-04-19T02:14:19.918Z,40.05
2023-04-19T02:16:47.926Z,39.94
2023-04-19T02:19:15.981Z,39.91
2023-04-19T02:21:43.917Z,40.13
2023-04-19T02:24:15.694Z,40.15
2023-04-19T02:26:43.743Z,40.03
2023-04-19T02:29:11.689Z,40.35
2023-04-19T02:31:41.158Z,40.40
2023-04-19T02:34:10.416Z,40.61
2023-04-19T02:36:38.367Z,40.29
2023-04-19T02:39:06.917Z,40.21
2023-04-19T02:41:34.834Z,40.38
2023-04-19T02:44:03.272Z,40.32
2023-04-19T02:46:31.229Z,40.39
2023-04-19T02:49:01.716Z,40.94
2023-04-19T02:51:29.674Z,40.66
2023-04-19T02:53:57.954Z,40.26
2023-04-19T02:56:26.165Z,40.91
2023-04-19T02:58:54.831Z,40.74
2023-04-19T03:01:22.911Z,40.84
2023-04-19T03:03:50.827Z,40.58
2023-04-19T03:06:20.686Z,40.75
2023-04-19T03:08:48.805Z,40.37
2023-04-19T03:11:18.839Z,40.46
2023-04-19T03:13:48.026Z,40.55
2023-04-19T03:16:16.307Z,40.46
2023-04-19T03:18:46.767Z,40.90
2023-04-19T03:21:17.234Z,40.75
2023-04-19T03:23:54.704Z,40.54
2023-04-19T03:26:23.238Z,40.52
2023-04-19T03:28:54.221Z,40.76
2023-04-19T03:31:43.911Z,40.58
2023-04-19T03:34:14.186Z,40.62
2023-04-19T03:36:45.826Z,41.09
2023-04-19T03:39:15.250Z,40.87
2023-04-19T03:41:47.018Z,41.05
2023-04-19T03:44:22.689Z,40.68
2023-04-19T03:46:51.032Z,40.79
2023-04-19T03:49:23.770Z,41.10
2023-04-19T03:51:59.202Z,41.30
2023-04-19T03:54:29.719Z,41.23
2023-04-19T03:56:58.576Z,40.90
2023-04-19T03:59:27.165Z,40.97
2023-04-19T04:01:56.023Z,40.67
2023-04-19T04:04:24.248Z,40.61
2023-04-19T04:06:52.420Z,41.09
2023-04-19T04:09:20.298Z,40.52
2023-04-19T04:11:49.874Z,40.80
2023-04-19T04:14:18.086Z,40.36
2023-04-19T04:16:47.830Z,40.96
2023-04-19T04:19:17.311Z,41.00
2023-04-19T04:21:46.036Z,40.79
2023-04-19T04:24:14.381Z,40.79
2023-04-19T04:27:03.294Z,40.44
2023-04-19T04:29:34.523Z,40.39
2023-04-19T04:32:06.240Z,40.50
2023-04-19T04:34:40.688Z,40.18
2023-04-19T04:37:13.682Z,40.62
2023-04-19T04:39:42.485Z,40.04
2023-04-19T04:42:13.485Z,40.51
2023-04-19T04:44:42.192Z,40.45
2023-04-19T04:47:13.959Z,40.07
2023-04-19T04:49:53.766Z,40.28
2023-04-19T04:52:22.053Z,40.31
2023-04-19T04:54:58.966Z,39.90
2023-04-19T04:57:33.591Z,39.76
2023-04-19T05:00:07.025Z,40.12
2023-04-19T05:02:43.603Z,39.91
2023-04-19T05:05:12.440Z,40.14
2023-04-19T05:07:41.136Z,40.01
2023-04-19T05:10:10.011Z,40.11
2023-04-19T05:12:46.882Z,39.56
2023-04-19T05:15:15.133Z,39.80
2023-04-19T05:17:49.372Z,39.59
2023-04-19T05:20:17.411Z,39.88
2023-04-19T05:22:46.824Z,39.16
2023-04-19T05:25:14.949Z,39.64
2023-04-19T05:27:43.071Z,39.45
2023-04-19T05:30:13.477Z,39.43
2023-04-19T05:32:44.387Z,39.19
2023-04-19T05:35:15.155Z,38.99
2023-04-19T05:37:45.201Z,39.18
2023-04-19T05:40:14.125Z,38.54
2023-04-19T05:42:43.723Z,38.68
2023-04-19T05:45:15.615Z,38.45
2023-04-19T05:47:43.845Z,38.45
2023-04-19T05:50:20.652Z,38.45
2023-04-19T05:53:20.914Z,38.37
2023-04-19T05:55:50.916Z,38.56
2023-04-19T05:58:19.066Z,38.79
2023-04-19T06:00:48.995Z,38.69
2023-04-19T06:03:20.390Z,38.21
2023-04-19T06:05:49.545Z,37.98
2023-04-19T06:08:18.989Z,38.44
2023-04-19T06:10:54.929Z,37.76
2023-04-19T06:13:26.437Z,38.28
2023-04-19T06:15:55.970Z,37.81
2023-04-19T06:18:23.984Z,37.70
2023-04-19T06:20:52.278Z,38.09
2023-04-19T06:23:20.302Z,38.17
2023-04-19T06:25:48.991Z,37.99
2023-04-19T06:28:17.279Z,37.71
2023-04-19T06:30:45.265Z,37.95
2023-04-19T06:33:14.590Z,37.38
2023-04-19T06:35:42.582Z,37.48
2023-04-19T06:38:10.593Z,36.96
2023-04-19T06:40:38.513Z,37.44
2023-04-19T06:43:06.730Z,37.11
2023-04-19T06:45:34.733Z,36.97
2023-04-19T06:48:02.972Z,37.07
2023-04-19T06:50:32.294Z,36.84
2023-04-19T06:53:01.202Z,36.71
2023-04-19T06:55:30.142Z,37.07
2023-04-19T06:57:58.481Z,36.23
2023-04-19T07:00:26.430Z,36.50
2023-04-19T07:02:54.649Z,36.55
2023-04-19T07:05:22.765Z,35.95
2023-04-19T07:07:52.132Z,35.42
2023-04-19T07:10:20.119Z,35.78
2023-04-19T07:12:48.051Z,35.61
2023-04-19T07:15:17.008Z,35.32
2023-04-19T07:17:45.120Z,34.74
2023-04-19T07:20:13.085Z,34.85
2023-04-19T07:22:41.536Z,34.95
2023-04-19T07:25:12.060Z,34.61
2023-04-19T07:27:40.097Z,34.57
2023-04-19T07:30:11.232Z,33.92
2023-04-19T07:32:39.391Z,33.91
2023-04-19T07:35:08.338Z,33.81
2023-04-19T07:37:36.356Z,34.39
2023-04-19T07:40:05.287Z,34.17
2023-04-19T07:42:34.626Z,33.32
2023-04-19T07:45:02.882Z,33.84
2023-04-19T07:47:31.322Z,33.29
2023-04-19T07:49:59.297Z,33.85
2023-04-19T07:52:27.309Z,33.66
2023-04-19T07:54:55.152Z,33.99
2023-04-19T07:57:23.166Z,33.98
2023-04-19T07:59:57.909Z,33.49
2023-04-19T08:02:28.013Z,33.37
2023-04-19T08:04:56.576Z,33.79
2023-04-19T08:07:26.166Z,33.18
2023-04-19T08:09:54.291Z,33.67
2023-04-19T08:12:34.622Z,33.55
2023-04-19T08:15:29.701Z,32.96
2023-04-19T08:17:57.889Z,33.12
2023-04-19T08:20:26.830Z,32.78
2023-04-19T08:22:55.805Z,33.10
2023-04-19T08:25:26.768Z,32.51
2023-04-19T08:27:54.735Z,32.54
2023-04-19T08:30:24.426Z,32.18
2023-04-19T08:32:53.753Z,32.56
2023-04-19T08:35:25.112Z,32.22
2023-04-19T08:37:53.012Z,32.00
2023-04-19T08:40:20.988Z,31.87
2023-04-19T08:42:48.860Z,31.25
2023-04-19T08:45:27.667Z,31.44
2023-04-19T08:48:01.857Z,30.89
2023-04-19T08:50:36.040Z,31.53
2023-04-19T08:55:59.209Z,30.07
2023-04-19T08:58:46.484Z,30.15
2023-04-19T09:04:03.428Z,29.82
2023-04-19T09:06:39.034Z,29.72
2023-04-19T09:09:34.113Z,27.96
2023-04-19T09:12:16.313Z,28.95
2023-04-19T09:14:59.939Z,28.24
2023-04-19T09:17:29.640Z,29.20
2023-04-19T09:19:59.586Z,28.41
2023-04-19T09:22:27.826Z,28.73
2023-04-19T09:27:29.107Z,28.78
2023-04-19T09:29:58.020Z,28.79
2023-04-19T09:32:26.567Z,28.30
2023-04-19T09:34:56.929Z,27.82
2023-04-19T09:39:58.133Z,28.13
2023-04-19T09:43:05.360Z,28.00
2023-04-19T09:45:42.824Z,26.77
2023-04-19T09:48:11.904Z,27.48
2023-04-19T09:50:58.462Z,26.75
2023-04-19T09:53:34.298Z,26.81
2023-04-19T09:56:04.168Z,27.37
2023-04-19T10:01:14.772Z,27.11
2023-04-19T10:03:49.139Z,27.46
2023-04-19T10:08:54.631Z,26.76
2023-04-19T10:11:23.672Z,26.58
2023-04-19T10:13:57.305Z,25.29
2023-04-19T10:16:26.208Z,26.52
2023-04-19T10:18:55.578Z,26.23
2023-04-19T10:21:23.796Z,26.60
2023-04-19T10:23:53.238Z,26.18
2023-04-19T10:26:22.267Z,25.67
2023-04-19T10:28:50.528Z,26.16
2023-04-19T10:31:23.916Z,25.31
2023-04-19T10:33:52.584Z,25.87
2023-04-19T10:36:22.461Z,24.51
2023-04-19T10:38:52.455Z,24.82
2023-04-19T10:41:22.944Z,24.48
2023-04-19T10:44:12.615Z,22.39
2023-04-19T10:46:41.577Z,24.05
2023-04-19T10:49:13.524Z,23.72
2023-04-19T10:51:44.232Z,24.06
2023-04-19T10:54:32.467Z,23.29
2023-04-19T10:57:05.059Z,23.27
2023-04-19T10:59:34.635Z,23.18
2023-04-19T11:02:04.154Z,22.73
2023-04-19T11:05:01.999Z,22.01
2023-04-19T11:07:30.752Z,22.86
2023-04-19T11:09:58.702Z,22.83
2023-04-19T11:12:28.237Z,22.52
2023-04-19T11:14:59.871Z,23.14
2023-04-19T11:17:31.591Z,23.41
2023-04-19T11:20:01.443Z,23.63
2023-04-19T11:22:33.633Z,22.36
2023-04-19T11:25:10.606Z,22.08
2023-04-19T11:27:41.558Z,22.75
2023-04-19T11:30:12.420Z,23.20
2023-04-19T11:32:46.252Z,22.21
2023-04-19T11:35:14.289Z,22.93
2023-04-19T11:37:42.338Z,23.32
2023-04-19T11:40:15.683Z,23.04
2023-04-19T11:42:45.300Z,23.30
2023-04-19T11:45:30.300Z,22.60
2023-04-19T11:48:00.087Z,22.74
2023-04-19T11:50:35.977Z,21.40
2023-04-19T11:53:12.969Z,21.42
2023-04-19T11:55:44.155Z,22.23
2023-04-19T11:58:26.329Z,20.61
2023-04-19T12:00:54.320Z,22.25
2023-04-19T12:03:26.184Z,21.99
2023-04-19T12:05:55.591Z,21.63
2023-04-19T12:08:34.116Z,19.74
2023-04-19T12:11:03.447Z,21.68
2023-04-19T12:13:33.557Z,21.65
2023-04-19T12:16:02.483Z,21.61
2023-04-19T12:18:44.559Z,20.71
2023-04-19T12:21:13.932Z,21.78
2023-04-19T12:23:41.837Z,22.09
2023-04-19T12:26:09.837Z,21.54
2023-04-19T12:28:39.907Z,21.77
2023-04-19T12:31:08.154Z,21.85
2023-04-19T12:33:36.470Z,21.60
2023-04-19T12:36:04.950Z,21.68
2023-04-19T12:38:32.906Z,21.45
2023-04-19T12:41:01.109Z,21.94
2023-04-19T12:43:30.101Z,22.07
2023-04-19T12:45:59.386Z,21.35
2023-04-19T12:48:28.154Z,21.94
2023-04-19T12:50:56.532Z,21.70
2023-04-19T12:53:24.914Z,21.61
2023-04-19T12:55:53.160Z,21.00
2023-04-19T12:58:21.759Z,21.08
2023-04-19T13:00:50.534Z,20.73
2023-04-19T13:03:19.931Z,20.73
2023-04-19T13:05:49.038Z,21.46
2023-04-19T13:08:17.107Z,21.04
2023-04-19T13:10:45.176Z,21.34
2023-04-19T13:13:13.063Z,21.31
2023-04-19T13:15:42.014Z,21.12
2023-04-19T13:18:10.159Z,20.91
2023-04-19T13:20:39.755Z,20.85
2023-04-19T13:23:07.619Z,20.70
2023-04-19T13:25:35.621Z,20.40
2023-04-19T13:28:04.127Z,21.08
2023-04-19T13:30:32.084Z,20.62
2023-04-19T13:33:01.088Z,20.28
2023-04-19T13:35:29.584Z,20.64
2023-04-19T13:37:58.852Z,20.19
2023-04-19T13:40:27.120Z,20.52
2023-04-19T13:42:56.780Z,20.70
2023-04-19T13:45:24.744Z,20.62
2023-04-19T13:47:52.712Z,20.44
2023-04-19T13:50:21.005Z,20.50
2023-04-19T13:52:48.925Z,20.50
2023-04-19T13:55:18.819Z,20.13
2023-04-19T13:57:46.757Z,20.10
2023-04-19T14:00:15.833Z,20.08
2023-04-19T14:02:45.001Z,20.14
2023-04-19T14:05:13.210Z,20.05
2023-04-19T14:07:41.524Z,20.61
2023-04-19T14:10:11.058Z,19.99
2023-04-19T14:12:40.882Z,20.72
2023-04-19T14:15:09.852Z,20.74
2023-04-19T14:17:37.800Z,20.48
2023-04-19T14:20:07.518Z,20.16
2023-04-19T14:22:36.285Z,20.05
2023-04-19T14:25:04.779Z,20.17
2023-04-19T14:27:33.214Z,20.10
2023-04-19T14:30:02.771Z,19.65
2023-04-19T14:32:30.852Z,19.73
2023-04-19T14:34:58.910Z,19.66
2023-04-19T14:37:26.831Z,19.66
2023-04-19T14:39:54.733Z,19.87
2023-04-19T14:42:23.155Z,19.15
2023-04-19T14:44:53.156Z,19.53
2023-04-19T14:47:22.802Z,19.34
2023-04-19T14:49:51.041Z,19.19
2023-04-19T14:52:19.028Z,19.54
2023-04-19T14:54:47.198Z,19.29
2023-04-19T14:57:15.369Z,19.47
2023-04-19T14:59:43.317Z,19.41
2023-04-19T15:02:13.344Z,19.63
2023-04-19T15:04:43.110Z,19.35
2023-04-19T15:07:11.198Z,19.38
2023-04-19T15:09:40.291Z,19.34
2023-04-19T15:12:08.484Z,18.89
2023-04-19T15:14:36.480Z,19.13
2023-04-19T15:17:04.463Z,19.31
2023-04-19T15:19:32.645Z,19.34
2023-04-19T15:22:03.923Z,18.90
2023-04-19T15:24:32.332Z,19.06
2023-04-19T15:27:00.306Z,18.79
2023-04-19T15:29:28.711Z,19.04
2023-04-19T15:31:56.925Z,18.79
2023-04-19T15:34:25.987Z,18.91
2023-04-19T15:36:54.132Z,19.17
2023-04-19T15:39:24.687Z,18.81
2023-04-19T15:41:52.833Z,18.77
2023-04-19T15:44:20.826Z,19.08
2023-04-19T15:46:48.836Z,18.82
2023-04-19T15:49:17.113Z,18.92
2023-04-19T15:51:45.551Z,19.00
2023-04-19T15:54:15.270Z,19.01
2023-04-19T15:56:44.451Z,18.97
2023-04-19T15:59:12.386Z,18.76
2023-04-19T16:01:40.358Z,19.16
2023-04-19T16:04:08.457Z,18.89
2023-04-19T16:06:36.514Z,19.18
2023-04-19T16:09:04.441Z,19.05
2023-04-19T16:11:32.343Z,18.83
2023-04-19T16:14:01.742Z,18.86
2023-04-19T16:16:33.041Z,19.18
2023-04-19T16:19:01.349Z,19.03
2023-04-19T16:21:29.262Z,19.03
2023-04-19T16:23:57.434Z,18.98
2023-04-19T16:26:25.328Z,19.08
2023-04-19T16:28:53.492Z,19.15
2023-04-19T16:31:23.058Z,18.59
2023-04-19T16:33:51.181Z,18.90
2023-04-19T16:36:19.165Z,19.08
2023-04-19T16:38:47.185Z,18.41
2023-04-19T16:41:15.068Z,18.85
2023-04-19T16:43:43.011Z,18.51
2023-04-19T16:46:11.087Z,18.85
2023-04-19T16:48:40.416Z,18.50
2023-04-19T16:51:08.342Z,18.69
2023-04-19T16:53:36.346Z,18.37
2023-04-19T16:56:04.477Z,18.57
2023-04-19T16:58:33.076Z,18.33
2023-04-19T17:01:02.767Z,18.54
2023-04-19T17:03:32.034Z,18.89
2023-04-19T17:06:01.945Z,18.94
2023-04-19T17:08:29.929Z,19.00
2023-04-19T17:10:58.097Z,18.51
2023-04-19T17:13:26.444Z,18.57
2023-04-19T17:15:54.451Z,18.31
2023-04-19T17:18:22.444Z,18.70
2023-04-19T17:20:50.327Z,18.13
2023-04-19T17:23:19.594Z,18.20
2023-04-19T17:25:47.523Z,18.52
2023-04-19T17:28:15.467Z,18.40
2023-04-19T17:30:43.568Z,18.50
2023-04-19T17:33:11.557Z,18.37
2023-04-19T17:35:39.530Z,18.54
2023-04-19T17:38:07.455Z,18.19
2023-04-19T17:40:36.701Z,18.43
2023-04-19T17:43:04.585Z,18.79
2023-04-19T17:45:32.522Z,18.27
2023-04-19T17:48:02.034Z,18.33
2023-04-19T17:50:30.074Z,18.77
2023-04-19T17:52:58.047Z,18.30
2023-04-19T17:55:26.460Z,18.22
2023-04-19T17:57:55.761Z,18.20
2023-04-19T18:00:23.978Z,18.54
2023-04-19T18:02:52.105Z,18.48
2023-04-19T18:05:20.334Z,18.44
2023-04-19T18:07:48.451Z,18.35
2023-04-19T18:10:16.442Z,18.21
2023-04-19T18:12:44.392Z,18.25
2023-04-19T18:15:15.130Z,18.20
2023-04-19T18:17:43.115Z,18.93
2023-04-19T18:20:13.679Z,18.63
2023-04-19T18:22:41.949Z,18.65
2023-04-19T18:25:10.921Z,18.54
2023-04-19T18:27:38.932Z,19.03
2023-04-19T18:30:08.189Z,18.75
2023-04-19T18:32:37.832Z,18.72
2023-04-19T18:35:08.750Z,18.84
2023-04-19T18:37:36.977Z,19.22
2023-04-19T18:40:07.120Z,18.93
2023-04-19T18:42:35.340Z,18.76
2023-04-19T18:45:04.180Z,18.94
2023-04-19T18:47:32.582Z,18.96
2023-04-19T18:50:19.899Z,18.93
2023-04-19T18:53:04.848Z,19.27
2023-04-19T18:55:33.623Z,19.00
2023-04-19T18:58:01.735Z,19.55
2023-04-19T19:00:29.915Z,19.55
2023-04-19T19:05:28.738Z,19.68
2023-04-19T19:07:56.948Z,19.75
2023-04-19T19:10:48.496Z,19.65
2023-04-19T19:13:13.217Z,19.45
2023-04-19T19:15:41.700Z,19.37
2023-04-19T19:18:09.945Z,19.35
2023-04-19T19:20:39.305Z,19.53
2023-04-19T19:23:07.385Z,19.49
2023-04-19T19:25:35.349Z,19.53
2023-04-19T19:28:08.320Z,20.12
2023-04-19T19:30:39.974Z,19.65
2023-04-19T19:33:08.317Z,19.84
2023-04-19T19:35:39.560Z,19.82
2023-04-19T19:38:09.380Z,19.83
2023-04-19T19:40:53.553Z,19.88
2023-04-19T19:43:28.348Z,20.11
2023-04-19T19:45:56.511Z,20.04
2023-04-19T19:48:25.434Z,20.32
2023-04-19T19:51:20.813Z,20.05
2023-04-19T19:53:43.244Z,20.19
2023-04-19T19:56:19.073Z,20.36
2023-04-19T19:58:51.984Z,20.27
2023-04-19T20:01:22.548Z,20.25
2023-04-19T20:03:51.432Z,20.24
2023-04-19T20:07:07.799Z,20.46
2023-04-19T20:09:09.367Z,20.36
2023-04-19T20:11:37.572Z,20.38
2023-04-19T20:14:05.478Z,20.82
2023-04-19T20:16:35.593Z,20.50
2023-04-19T20:19:09.577Z,20.77
2023-04-19T20:21:38.187Z,20.97
2023-04-19T20:24:07.745Z,20.77
2023-04-19T20:26:37.029Z,21.02
2023-04-19T20:29:04.955Z,20.84
2023-04-19T20:31:33.161Z,21.31
2023-04-19T20:34:01.079Z,21.07
2023-04-19T20:36:31.772Z,21.39
2023-04-19T20:39:01.862Z,21.24
2023-04-19T20:41:30.884Z,20.97
2023-04-19T20:44:01.192Z,20.89
2023-04-19T20:46:29.687Z,21.12
2023-04-19T20:48:57.995Z,21.47
2023-04-19T20:51:26.601Z,21.07
2023-04-19T20:53:54.754Z,21.55
2023-04-19T20:56:23.077Z,21.11
2023-04-19T20:58:51.298Z,21.57
2023-04-19T21:01:22.595Z,21.56
2023-04-19T21:03:52.144Z,21.69
2023-04-19T21:06:23.154Z,21.76
2023-04-19T21:08:51.527Z,21.35
2023-04-19T21:11:19.687Z,21.71
2023-04-19T21:13:47.967Z,22.03
2023-04-19T21:16:15.913Z,22.14
2023-04-19T21:18:45.483Z,21.67
2023-04-19T21:21:13.458Z,21.80
2023-04-19T21:23:41.417Z,21.74
2023-04-19T21:26:09.661Z,21.74
2023-04-19T21:28:37.692Z,21.94
2023-04-19T21:31:05.858Z,22.25
2023-04-19T21:33:33.914Z,22.11
2023-04-19T21:36:03.336Z,22.48
2023-04-19T21:38:31.320Z,22.48
2023-04-19T21:40:59.192Z,22.11
2023-04-19T21:43:27.085Z,22.24
2023-04-19T21:45:55.031Z,22.61
2023-04-19T21:48:23.041Z,22.32
2023-04-19T21:50:50.924Z,22.62
2023-04-19T21:53:20.382Z,22.48
2023-04-19T21:55:49.983Z,22.60
2023-04-19T21:58:18.728Z,22.66
2023-04-19T22:00:46.662Z,22.69
2023-04-19T22:03:14.673Z,22.48
2023-04-19T22:05:43.192Z,22.94
2023-04-19T22:08:12.126Z,22.91
2023-04-19T22:10:42.692Z,22.78
2023-04-19T22:13:10.620Z,22.41
2023-04-19T22:15:38.516Z,22.94
2023-04-19T22:18:06.720Z,22.54
2023-04-19T22:20:34.707Z,22.45
2023-04-19T22:23:02.673Z,22.56
2023-04-19T22:25:30.874Z,23.12
2023-04-19T22:28:00.336Z,22.86
2023-04-19T22:30:28.251Z,22.61
2023-04-19T22:32:56.305Z,23.05
2023-04-19T22:35:24.298Z,23.16
2023-04-19T22:37:52.283Z,22.76
2023-04-19T22:40:23.428Z,23.11
2023-04-19T22:42:51.402Z,23.13
2023-04-19T22:45:20.679Z,23.26
2023-04-19T22:47:48.763Z,22.92
2023-04-19T22:50:16.868Z,22.91
2023-04-19T22:52:45.600Z,23.36
2023-04-19T22:55:13.620Z,23.26
2023-04-19T22:57:41.495Z,22.84
2023-04-19T23:00:11.492Z,22.83
2023-04-19T23:02:41.672Z,23.29
2023-04-19T23:05:10.263Z,22.90
2023-04-19T23:07:39.958Z,23.03
2023-04-19T23:10:10.274Z,23.31
2023-04-19T23:12:44.434Z,23.21
2023-04-19T23:15:13.484Z,22.91
2023-04-19T23:17:42.928Z,22.79
2023-04-19T23:20:11.546Z,22.71
2023-04-19T23:22:39.649Z,23.00
2023-04-19T23:25:08.850Z,23.09
2023-04-19T23:27:37.024Z,23.20
2023-04-19T23:30:07.441Z,22.67
2023-04-19T23:32:35.500Z,22.83
2023-04-19T23:35:05.117Z,22.52
2023-04-19T23:37:33.024Z,23.01
2023-04-19T23:40:02.266Z,22.52
2023-04-19T23:42:30.193Z,22.72
2023-04-19T23:44:58.157Z,22.48
2023-04-19T23:47:26.120Z,23.04
2023-04-19T23:49:53.963Z,22.92
2023-04-19T23:52:23.398Z,22.90
2023-04-19T23:54:51.226Z,22.57
2023-04-19T23:57:19.950Z,22.61
2023-04-19T23:59:47.840Z,22.89
